Time;durP1;ratioP1;P1;durP2;ratioP2;P2;SDS_P1;SDS_P2;PMS_P1;PMS_P2;Temp;Humidity;BMP_temperature;BMP_pressure;BME280_temperature;BME280_humidity;BME280_pressure;Samples;Min_cycle;Max_cycle;Signal;HPM_P1;HPM_P2
2023/03/04 00:01:04;;;;;;;122.32;56.92;;;-1.10;82.60;;;;;;5034989;28;20402;-67
2023/03/04 00:03:30;;;;;;;133.73;61.10;;;-1.10;82.40;;;;;;5032661;28;20306;-67
2023/03/04 00:05:55;;;;;;;133.30;62.70;;;-1.10;82.40;;;;;;5027256;28;20022;-67
2023/03/04 00:08:24;;;;;;;124.25;59.25;;;-1.10;81.70;;;;;;5038148;28;20026;-67
2023/03/04 00:10:50;;;;;;;122.28;57.53;;;-1.10;81.30;;;;;;5035308;28;20152;-66
2023/03/04 00:13:20;;;;;;;130.88;61.97;;;-1.10;80.60;;;;;;5032510;28;20375;-67
2023/03/04 00:15:46;;;;;;;129.85;60.08;;;-1.00;80.80;;;;;;5019367;28;20113;-67
2023/03/04 00:18:21;;;;;;;128.13;61.25;;;-1.00;80.90;;;;;;5022326;28;20021;-67
2023/03/04 00:20:49;;;;;;;133.02;62.25;;;-1.00;80.80;;;;;;5023077;28;20034;-67
2023/03/04 00:23:15;;;;;;;127.28;61.38;;;-1.00;79.90;;;;;;5038057;28;20034;-67
2023/03/04 00:25:41;;;;;;;126.78;61.38;;;-0.90;80.60;;;;;;5023255;28;20104;-66
2023/03/04 00:28:06;;;;;;;131.60;60.90;;;-0.90;81.80;;;;;;5030997;28;20369;-66
2023/03/04 00:30:32;;;;;;;131.98;62.63;;;-0.90;81.80;;;;;;5021298;28;20048;-67
2023/03/04 00:33:03;;;;;;;123.30;59.80;;;-1.00;82.20;;;;;;5030498;28;20041;-66
2023/03/04 00:35:29;;;;;;;121.68;59.78;;;-1.00;81.80;;;;;;5034742;28;20084;-67
2023/03/04 00:37:54;;;;;;;124.43;60.10;;;-1.00;81.30;;;;;;5036250;28;20379;-67
2023/03/04 00:40:20;;;;;;;127.85;60.88;;;-1.00;82.50;;;;;;5028697;28;20030;-66
2023/03/04 00:42:46;;;;;;;130.73;59.85;;;-1.10;82.80;;;;;;5020355;28;20108;-67
2023/03/04 00:45:14;;;;;;;129.60;62.50;;;-1.20;82.40;;;;;;5032015;28;20072;-66
2023/03/04 00:47:39;;;;;;;132.07;62.30;;;-1.20;81.50;;;;;;5034400;28;20033;-66
2023/03/04 00:50:05;;;;;;;128.57;58.63;;;-1.20;80.70;;;;;;5035455;28;20436;-67
2023/03/04 00:52:31;;;;;;;141.07;65.72;;;-1.20;80.40;;;;;;5029856;28;20485;-67
2023/03/04 00:54:57;;;;;;;140.98;64.10;;;-1.20;81.10;;;;;;5033310;28;20038;-67
2023/03/04 00:57:22;;;;;;;139.85;66.80;;;-1.20;80.40;;;;;;5019322;28;20030;-67
2023/03/04 00:59:48;;;;;;;146.52;67.70;;;-1.20;80.20;;;;;;5027603;28;20052;-66
2023/03/04 01:02:16;;;;;;;149.23;67.13;;;-1.20;79.90;;;;;;5033713;28;20025;-66
2023/03/04 01:04:42;;;;;;;138.48;63.28;;;-1.20;80.20;;;;;;5036077;28;20037;-66
2023/03/04 01:07:08;;;;;;;146.07;65.32;;;-1.20;80.00;;;;;;5034981;28;20428;-67
2023/03/04 01:09:33;;;;;;;132.90;63.08;;;-1.20;79.90;;;;;;5026359;28;20057;-68
2023/03/04 01:11:59;;;;;;;148.63;66.18;;;-1.20;79.50;;;;;;5038085;28;20024;-69
2023/03/04 01:14:25;;;;;;;152.73;68.72;;;-1.20;79.50;;;;;;5048388;28;20025;-69
2023/03/04 01:16:51;;;;;;;151.45;70.03;;;-1.30;80.40;;;;;;5028820;28;20037;-67
2023/03/04 01:19:17;;;;;;;159.80;69.03;;;-1.40;79.40;;;;;;5041667;28;20029;-67
2023/03/04 01:21:43;;;;;;;132.30;62.45;;;-1.40;79.00;;;;;;5028255;28;20104;-67
2023/03/04 01:24:08;;;;;;;141.20;66.18;;;-1.40;79.10;;;;;;5032154;28;20101;-67
2023/03/04 01:26:37;;;;;;;156.25;70.75;;;-1.40;77.80;;;;;;5036012;28;20034;-67
2023/03/04 01:29:03;;;;;;;144.98;65.93;;;-1.30;78.50;;;;;;5033913;28;20061;-66
2023/03/04 01:31:28;;;;;;;146.35;65.32;;;-1.40;78.40;;;;;;5038656;28;20366;-68
2023/03/04 01:33:54;;;;;;;159.15;72.53;;;-1.40;78.60;;;;;;5034420;28;20064;-67
2023/03/04 01:36:20;;;;;;;142.70;61.42;;;-1.50;78.30;;;;;;5021235;28;20113;-67
2023/03/04 01:38:45;;;;;;;127.28;62.20;;;-1.50;78.30;;;;;;5046209;28;20112;-67
2023/03/04 01:41:12;;;;;;;135.77;59.20;;;-1.50;78.00;;;;;;5033598;28;20036;-66
2023/03/04 01:43:38;;;;;;;134.55;59.85;;;-1.60;78.30;;;;;;5035408;28;20484;-67
2023/03/04 01:46:05;;;;;;;138.38;63.67;;;-1.60;77.20;;;;;;5038191;28;20079;-67
2023/03/04 01:48:35;;;;;;;142.48;64.65;;;-1.70;77.40;;;;;;5051260;28;20452;-66
2023/03/04 01:51:05;;;;;;;129.43;59.25;;;-1.70;76.70;;;;;;5037207;28;20029;-67
2023/03/04 01:53:32;;;;;;;141.10;64.18;;;-1.70;76.40;;;;;;5035466;28;20034;-67
2023/03/04 01:56:03;;;;;;;158.18;70.50;;;-1.70;76.60;;;;;;5032709;28;20033;-66
2023/03/04 01:58:31;;;;;;;114.40;55.70;;;-1.70;76.10;;;;;;5047498;28;20033;-66
2023/03/04 02:00:57;;;;;;;135.13;59.75;;;-1.70;75.80;;;;;;5030021;28;20022;-67
2023/03/04 02:03:23;;;;;;;128.48;59.50;;;-1.80;76.20;;;;;;5033070;28;20025;-67
2023/03/04 02:05:50;;;;;;;129.35;59.50;;;-1.80;76.80;;;;;;5033883;28;20032;-67
2023/03/04 02:08:18;;;;;;;152.30;65.40;;;-1.90;76.80;;;;;;5042996;28;20067;-66
2023/03/04 02:10:46;;;;;;;145.57;66.03;;;-1.90;75.60;;;;;;5032577;28;20038;-66
2023/03/04 02:13:13;;;;;;;167.07;72.63;;;-1.90;75.20;;;;;;5036107;28;20082;-67
2023/03/04 02:15:39;;;;;;;160.43;70.53;;;-1.90;75.00;;;;;;5036725;28;20104;-66
2023/03/04 02:18:21;;;;;;;155.60;73.15;;;-1.90;74.30;;;;;;5034756;28;20066;-66
2023/03/04 02:21:28;;;;;;;149.60;68.32;;;-1.90;74.30;;;;;;5028640;28;20048;-66
2023/03/04 02:24:05;;;;;;;151.82;65.68;;;-1.80;74.20;;;;;;5021151;28;20024;-67
2023/03/04 02:26:32;;;;;;;167.73;73.15;;;-1.90;75.60;;;;;;5036668;28;20036;-67
2023/03/04 02:29:02;;;;;;;183.88;78.55;;;-2.00;75.40;;;;;;5046995;28;20033;-66
2023/03/04 02:31:35;;;;;;;164.88;71.00;;;-2.00;74.20;;;;;;5021789;28;20078;-67
2023/03/04 02:34:04;;;;;;;170.43;79.18;;;-1.90;73.40;;;;;;5036960;28;20029;-66
2023/03/04 02:36:31;;;;;;;154.02;70.28;;;-1.90;72.90;;;;;;5048440;28;20035;-66
2023/03/04 02:39:10;;;;;;;173.00;74.45;;;-1.90;73.80;;;;;;5039457;28;20454;-66
2023/03/04 02:41:36;;;;;;;207.13;83.93;;;-1.90;74.70;;;;;;5024615;28;20037;-66
2023/03/04 02:44:01;;;;;;;159.10;72.72;;;-2.00;75.70;;;;;;5034496;28;20322;-66
2023/03/04 02:46:27;;;;;;;188.25;80.10;;;-2.20;75.70;;;;;;5038159;28;20037;-66
2023/03/04 02:48:53;;;;;;;169.82;74.53;;;-2.10;73.10;;;;;;5034237;28;20026;-65
2023/03/04 02:51:18;;;;;;;177.77;74.82;;;-2.10;73.00;;;;;;5037601;28;20493;-68
2023/03/04 02:53:44;;;;;;;153.75;70.57;;;-2.10;72.80;;;;;;5038004;28;20052;-67
2023/03/04 02:56:09;;;;;;;172.10;74.55;;;-2.10;73.10;;;;;;5051049;28;20094;-66
2023/03/04 02:58:37;;;;;;;177.60;73.85;;;-2.10;73.20;;;;;;5046280;28;20435;-68
2023/03/04 03:01:04;;;;;;;149.93;67.60;;;-2.10;72.60;;;;;;5045758;28;20403;-66
2023/03/04 03:03:29;;;;;;;178.60;75.40;;;-2.00;73.00;;;;;;5031489;28;20037;-65
2023/03/04 03:05:55;;;;;;;182.68;78.72;;;-2.10;73.80;;;;;;5036622;28;20033;-66
2023/03/04 03:08:20;;;;;;;143.32;67.05;;;-2.20;73.40;;;;;;5037564;28;20025;-65
2023/03/04 03:10:46;;;;;;;153.45;71.38;;;-2.20;72.80;;;;;;5038485;28;20057;-66
2023/03/04 03:13:11;;;;;;;173.13;76.07;;;-2.20;73.10;;;;;;5045902;28;20033;-66
2023/03/04 03:15:41;;;;;;;180.35;78.47;;;-2.20;73.10;;;;;;5036423;28;20112;-66
2023/03/04 03:18:09;;;;;;;150.60;69.05;;;-2.20;72.40;;;;;;5039769;28;20029;-67
2023/03/04 03:20:35;;;;;;;161.18;72.63;;;-2.20;73.10;;;;;;5035469;28;20033;-66
2023/03/04 03:23:01;;;;;;;157.38;70.93;;;-2.20;72.20;;;;;;5026852;28;20389;-66
2023/03/04 03:25:27;;;;;;;157.68;72.10;;;-2.10;71.80;;;;;;5025802;28;20026;-66
2023/03/04 03:27:53;;;;;;;136.57;64.68;;;-2.10;72.00;;;;;;5053361;28;20021;-66
2023/03/04 03:30:18;;;;;;;160.52;74.97;;;-2.30;73.30;;;;;;5020208;28;20322;-66
2023/03/04 03:32:44;;;;;;;181.95;77.22;;;-2.30;72.70;;;;;;5037505;28;20029;-66
2023/03/04 03:35:10;;;;;;;191.68;78.70;;;-2.40;73.10;;;;;;5047172;28;20025;-65
2023/03/04 03:37:35;;;;;;;177.63;76.00;;;-2.30;71.30;;;;;;5044572;28;20036;-66
2023/03/04 03:40:01;;;;;;;163.50;72.25;;;-2.30;72.20;;;;;;5037945;28;20083;-66
2023/03/04 03:42:27;;;;;;;151.77;63.40;;;-2.40;72.10;;;;;;5038036;28;20049;-66
2023/03/04 03:44:52;;;;;;;153.63;65.63;;;-2.40;71.90;;;;;;5036761;28;20037;-65
2023/03/04 03:47:21;;;;;;;117.53;55.55;;;-2.40;71.30;;;;;;5037408;28;20022;-65
2023/03/04 03:49:47;;;;;;;125.15;58.13;;;-2.40;71.50;;;;;;5037821;28;20041;-66
2023/03/04 03:52:12;;;;;;;130.52;56.42;;;-2.50;72.30;;;;;;5036552;28;20025;-66
2023/03/04 03:54:38;;;;;;;137.70;57.47;;;-2.60;72.40;;;;;;5032253;28;20026;-66
2023/03/04 03:57:04;;;;;;;154.60;63.03;;;-2.60;72.00;;;;;;5018711;28;20109;-66
2023/03/04 03:59:29;;;;;;;140.35;60.15;;;-2.60;71.30;;;;;;5028694;28;20035;-66
2023/03/04 04:01:55;;;;;;;144.00;61.83;;;-2.50;70.80;;;;;;5021863;28;20029;-66
2023/03/04 04:04:23;;;;;;;121.25;56.08;;;-2.50;71.00;;;;;;5031897;28;20322;-66
2023/03/04 04:06:49;;;;;;;141.52;59.25;;;-2.50;70.70;;;;;;5021813;28;20076;-66
2023/03/04 04:09:14;;;;;;;166.27;64.10;;;-2.40;70.70;;;;;;5047967;28;20066;-66
2023/03/04 04:11:40;;;;;;;157.25;62.53;;;-2.50;71.20;;;;;;5039634;28;20112;-66
2023/03/04 04:14:05;;;;;;;159.27;64.82;;;-2.50;71.50;;;;;;5044641;28;20321;-66
2023/03/04 04:16:31;;;;;;;148.70;65.68;;;-2.60;72.10;;;;;;5034162;28;20040;-65
2023/03/04 04:18:57;;;;;;;141.32;63.00;;;-2.60;72.50;;;;;;5018533;28;20061;-66
2023/03/04 04:21:22;;;;;;;139.82;62.20;;;-2.70;72.90;;;;;;5033002;28;20024;-65
2023/03/04 04:23:48;;;;;;;171.55;72.25;;;-2.80;72.40;;;;;;5043033;28;20029;-66
2023/03/04 04:26:13;;;;;;;159.75;68.38;;;-2.70;70.70;;;;;;5027696;28;20031;-66
2023/03/04 04:28:39;;;;;;;149.35;64.07;;;-2.70;70.40;;;;;;5027493;28;20113;-66
2023/03/04 04:31:08;;;;;;;157.27;62.97;;;-2.60;70.50;;;;;;5050881;28;20057;-65
2023/03/04 04:33:35;;;;;;;155.70;63.47;;;-2.70;72.00;;;;;;5035371;28;20455;-66
2023/03/04 04:36:00;;;;;;;169.70;66.25;;;-2.80;72.20;;;;;;5040177;28;20036;-66
2023/03/04 04:38:26;;;;;;;137.60;60.25;;;-2.90;71.30;;;;;;5039256;28;20056;-65
2023/03/04 04:40:52;;;;;;;140.07;60.70;;;-2.80;70.40;;;;;;5053312;28;20033;-65
2023/03/04 04:43:17;;;;;;;154.70;63.60;;;-2.80;70.40;;;;;;5034787;28;20036;-66
2023/03/04 04:45:43;;;;;;;144.07;60.85;;;-2.80;70.50;;;;;;5022992;28;20041;-66
2023/03/04 04:48:08;;;;;;;135.15;59.42;;;-2.80;70.00;;;;;;5032790;28;20045;-66
2023/03/04 04:50:34;;;;;;;180.25;69.47;;;-2.70;69.40;;;;;;5033586;28;20029;-65
2023/03/04 04:53:00;;;;;;;156.55;66.43;;;-2.70;70.10;;;;;;5037548;28;20112;-66
2023/03/04 04:55:25;;;;;;;183.00;72.85;;;-2.70;70.10;;;;;;5023214;28;20410;-66
2023/03/04 04:57:57;;;;;;;175.63;69.60;;;-2.70;69.70;;;;;;5017503;28;20292;-66
2023/03/04 05:00:23;;;;;;;142.68;59.95;;;-2.60;69.40;;;;;;5033487;28;20083;-65
2023/03/04 05:02:48;;;;;;;143.60;60.63;;;-2.60;70.30;;;;;;5036163;28;20029;-66
2023/03/04 05:05:14;;;;;;;162.23;64.72;;;-2.70;70.10;;;;;;5024993;28;20414;-65
2023/03/04 05:07:39;;;;;;;167.75;67.72;;;-2.80;70.50;;;;;;5017437;28;20040;-66
2023/03/04 05:10:05;;;;;;;149.07;64.75;;;-2.80;70.70;;;;;;5026697;28;20037;-65
2023/03/04 05:12:34;;;;;;;183.68;69.20;;;-2.80;70.00;;;;;;5037228;28;20029;-65
2023/03/04 05:14:59;;;;;;;170.60;66.22;;;-2.80;70.20;;;;;;5032424;28;20033;-66
2023/03/04 05:17:25;;;;;;;162.77;65.43;;;-2.80;70.40;;;;;;5034940;28;20037;-66
2023/03/04 05:19:51;;;;;;;143.45;62.20;;;-2.80;70.60;;;;;;5036103;28;20030;-66
2023/03/04 05:22:16;;;;;;;145.55;60.97;;;-2.80;70.00;;;;;;5023824;28;20061;-68
2023/03/04 05:24:42;;;;;;;168.98;69.43;;;-2.70;69.10;;;;;;5046414;28;20550;-65
2023/03/04 05:27:07;;;;;;;139.90;62.53;;;-2.70;70.00;;;;;;5053749;28;20029;-65
2023/03/04 05:29:33;;;;;;;133.30;59.17;;;-2.80;70.40;;;;;;5040171;28;20021;-65
2023/03/04 05:31:58;;;;;;;145.30;60.58;;;-2.90;71.50;;;;;;5048871;28;20037;-65
2023/03/04 05:34:24;;;;;;;138.73;61.67;;;-2.90;70.50;;;;;;5038272;28;20441;-64
2023/03/04 05:36:49;;;;;;;170.32;70.18;;;-2.90;70.00;;;;;;5055786;28;20032;-65
2023/03/04 05:39:15;;;;;;;138.68;59.88;;;-2.90;69.30;;;;;;5041785;28;20033;-65
2023/03/04 05:41:40;;;;;;;131.65;56.83;;;-2.80;69.40;;;;;;5032355;28;20314;-65
2023/03/04 05:44:06;;;;;;;158.02;65.22;;;-2.80;69.60;;;;;;5029004;28;20108;-67
2023/03/04 05:46:32;;;;;;;143.40;60.25;;;-2.90;70.80;;;;;;5022424;28;20038;-67
2023/03/04 05:48:57;;;;;;;135.80;56.83;;;-2.90;69.90;;;;;;5028073;28;20041;-67
2023/03/04 05:51:26;;;;;;;161.85;64.43;;;-2.90;69.70;;;;;;5033917;28;20108;-66
2023/03/04 05:53:51;;;;;;;160.50;67.45;;;-2.80;70.00;;;;;;5030866;28;20428;-65
2023/03/04 05:56:18;;;;;;;162.60;66.32;;;-2.90;70.10;;;;;;5029767;28;20067;-64
2023/03/04 05:58:47;;;;;;;180.10;87.68;;;-2.90;70.00;;;;;;5036916;28;20311;-66
2023/03/04 06:01:13;;;;;;;171.88;88.82;;;-2.90;69.20;;;;;;5044746;28;20021;-65
2023/03/04 06:03:39;;;;;;;142.45;69.05;;;-2.70;67.80;;;;;;5038407;28;20018;-65
2023/03/04 06:06:05;;;;;;;161.07;72.63;;;-2.60;68.40;;;;;;5044575;28;20029;-66
2023/03/04 06:08:31;;;;;;;184.25;74.93;;;-2.70;70.50;;;;;;5034335;28;20300;-65
2023/03/04 06:10:57;;;;;;;149.45;61.10;;;-2.90;72.00;;;;;;5029826;28;20029;-66
2023/03/04 06:13:24;;;;;;;118.88;54.65;;;-3.00;71.30;;;;;;5028952;28;20029;-65
2023/03/04 06:15:54;;;;;;;155.27;60.85;;;-3.00;70.30;;;;;;5020711;28;20040;-64
2023/03/04 06:18:20;;;;;;;136.68;56.72;;;-2.90;69.70;;;;;;5029272;28;20025;-65
2023/03/04 06:20:46;;;;;;;138.93;58.72;;;-2.90;70.30;;;;;;5034469;28;20032;-65
2023/03/04 06:23:11;;;;;;;122.97;53.45;;;-2.90;69.90;;;;;;5029690;28;20091;-64
2023/03/04 06:25:37;;;;;;;187.80;68.97;;;-2.80;69.90;;;;;;5032691;28;20037;-65
2023/03/04 06:28:02;;;;;;;184.18;69.60;;;-2.90;71.30;;;;;;5027753;28;20053;-65
2023/03/04 06:30:28;;;;;;;154.52;62.45;;;-3.00;72.00;;;;;;5034852;28;20318;-64
2023/03/04 06:32:54;;;;;;;123.82;54.80;;;-3.10;71.60;;;;;;5025350;28;20384;-65
2023/03/04 06:35:19;;;;;;;130.20;55.40;;;-3.20;70.90;;;;;;5028971;28;20028;-65
2023/03/04 06:37:45;;;;;;;170.68;62.85;;;-3.20;70.20;;;;;;5031117;28;20056;-65
2023/03/04 06:40:11;;;;;;;157.00;64.00;;;-3.10;69.70;;;;;;5030098;28;20022;-65
2023/03/04 06:42:38;;;;;;;134.88;59.17;;;-3.00;70.10;;;;;;5034410;28;20071;-65
2023/03/04 06:45:05;;;;;;;155.43;63.15;;;-3.00;70.10;;;;;;5033912;28;20028;-64
2023/03/04 06:47:30;;;;;;;144.38;60.20;;;-2.90;69.60;;;;;;5034859;28;20067;-65
2023/03/04 06:49:56;;;;;;;134.27;61.83;;;-2.90;69.70;;;;;;5030259;28;20089;-65
2023/03/04 06:52:21;;;;;;;142.07;62.67;;;-2.80;68.80;;;;;;5022362;28;20022;-65
2023/03/04 06:54:47;;;;;;;182.43;74.80;;;-2.60;69.20;;;;;;5024429;28;20041;-65
2023/03/04 06:57:13;;;;;;;171.13;67.38;;;-2.60;70.00;;;;;;5022776;28;20034;-64
2023/03/04 06:59:39;;;;;;;142.90;61.60;;;-2.60;70.50;;;;;;5032972;28;20120;-64
2023/03/04 07:02:05;;;;;;;125.15;57.53;;;-2.60;70.50;;;;;;5032700;28;20025;-65
2023/03/04 07:04:31;;;;;;;138.15;63.85;;;-2.60;69.50;;;;;;5032864;28;20156;-64
2023/03/04 07:06:57;;;;;;;153.60;67.78;;;-2.50;69.70;;;;;;5030186;28;20061;-64
2023/03/04 07:09:22;;;;;;;170.10;72.45;;;-2.40;69.50;;;;;;5030889;28;20092;-65
2023/03/04 07:11:48;;;;;;;164.82;68.15;;;-2.30;69.50;;;;;;5015421;28;20030;-65
2023/03/04 07:14:14;;;;;;;143.38;62.05;;;-2.20;69.30;;;;;;5028869;28;20052;-65
2023/03/04 07:16:48;;;;;;;133.93;61.53;;;-2.20;70.10;;;;;;5017783;28;20327;-65
2023/03/04 07:19:14;;;;;;;125.28;59.80;;;-2.10;69.50;;;;;;5026373;28;20061;-64
2023/03/04 07:21:39;;;;;;;165.15;72.68;;;-2.00;69.60;;;;;;5044092;28;20508;-65
2023/03/04 07:24:05;;;;;;;166.80;71.70;;;-1.90;69.70;;;;;;5036517;28;20057;-65
2023/03/04 07:26:31;;;;;;;148.52;66.47;;;-1.70;69.40;;;;;;5031072;28;20033;-64
2023/03/04 07:28:59;;;;;;;145.23;68.15;;;-1.50;69.50;;;;;;5034020;28;20037;-64
2023/03/04 07:31:28;;;;;;;129.18;65.10;;;-1.30;70.30;;;;;;5042676;28;20033;-65
2023/03/04 07:33:57;;;;;;;127.00;59.40;;;-1.20;70.90;;;;;;5026008;28;20060;-65
2023/03/04 07:36:23;;;;;;;132.20;66.75;;;-1.10;71.90;;;;;;5031122;28;20415;-64
2023/03/04 07:38:49;;;;;;;159.63;76.63;;;-1.00;74.40;;;;;;5025464;28;20029;-64
2023/03/04 07:41:16;;;;;;;154.35;76.47;;;-1.00;76.40;;;;;;5035134;28;20365;-64
2023/03/04 07:43:42;;;;;;;153.77;78.55;;;-1.00;79.00;;;;;;5034352;28;20088;-64
2023/03/04 07:46:08;;;;;;;142.65;74.30;;;-1.00;79.70;;;;;;5037662;28;20033;-64
2023/03/04 07:48:34;;;;;;;156.48;75.88;;;-1.00;80.40;;;;;;5034484;28;20099;-63
2023/03/04 07:51:17;;;;;;;141.15;69.57;;;-1.00;80.20;;;;;;5031307;28;20038;-64
2023/03/04 07:53:45;;;;;;;147.98;70.43;;;-0.90;79.80;;;;;;5036555;28;20034;-64
2023/03/04 07:56:14;;;;;;;126.47;65.60;;;-0.80;79.10;;;;;;5035043;28;20021;-64
2023/03/04 07:58:40;;;;;;;116.13;60.60;;;-0.60;77.50;;;;;;5036241;28;20124;-64
2023/03/04 08:01:12;;;;;;;119.57;58.90;;;-0.40;78.60;;;;;;5025431;28;20129;-64
2023/03/04 08:03:38;;;;;;;87.18;46.05;;;-0.30;80.70;;;;;;5033283;28;20024;-64
2023/03/04 08:06:09;;;;;;;82.88;39.67;;;-0.20;83.20;;;;;;5030133;28;20863;-64
2023/03/04 08:08:35;;;;;;;79.85;40.47;;;-0.10;87.50;;;;;;5038939;28;20112;-64
2023/03/04 08:11:28;;;;;;;89.43;43.90;;;-0.10;90.50;;;;;;5047257;28;20036;-64
2023/03/04 08:13:57;;;;;;;89.80;46.13;;;0.10;88.90;;;;;;5031642;28;20045;-64
2023/03/04 08:16:24;;;;;;;90.05;48.58;;;0.20;89.90;;;;;;5028326;28;20044;-64
2023/03/04 08:18:53;;;;;;;87.18;44.88;;;0.50;91.00;;;;;;5037431;28;20029;-64
2023/03/04 08:21:21;;;;;;;90.70;44.85;;;0.70;93.20;;;;;;5037509;28;20326;-64
2023/03/04 08:23:47;;;;;;;75.35;40.75;;;0.80;94.50;;;;;;5030447;28;20036;-62
2023/03/04 08:26:23;;;;;;;66.50;36.25;;;1.10;95.10;;;;;;5033714;28;20434;-64
2023/03/04 08:28:49;;;;;;;65.88;37.60;;;1.90;98.00;;;;;;5031750;28;20444;-64
2023/03/04 08:31:16;;;;;;;59.88;35.05;;;2.80;98.00;;;;;;5039030;28;20434;-63
2023/03/04 08:33:42;;;;;;;65.65;35.67;;;3.70;98.00;;;;;;5039538;28;20033;-63
2023/03/04 08:36:09;;;;;;;56.75;33.17;;;4.30;98.00;;;;;;5031667;28;20356;-63
2023/03/04 08:38:34;;;;;;;59.13;33.13;;;4.70;97.50;;;;;;5033017;28;20067;-65
2023/03/04 08:41:01;;;;;;;56.35;32.65;;;4.50;96.30;;;;;;5033594;28;20025;-66
2023/03/04 08:43:27;;;;;;;55.72;31.90;;;4.60;97.20;;;;;;5033733;28;20026;-65
2023/03/04 08:45:53;;;;;;;53.42;30.65;;;4.60;95.30;;;;;;5039132;28;20116;-64
2023/03/04 08:48:20;;;;;;;57.85;32.53;;;4.90;94.70;;;;;;5032480;28;20055;-64
2023/03/04 08:50:55;;;;;;;53.38;32.28;;;4.80;93.30;;;;;;5029484;28;20033;-63
2023/03/04 08:53:21;;;;;;;60.10;35.25;;;4.30;93.50;;;;;;5033652;28;20049;-65
2023/03/04 08:55:50;;;;;;;62.65;35.72;;;3.30;94.50;;;;;;5027948;28;20029;-63
2023/03/04 08:58:16;;;;;;;66.93;38.90;;;3.00;96.50;;;;;;5031984;28;20041;-63
2023/03/04 09:00:47;;;;;;;71.70;39.42;;;2.90;97.50;;;;;;5023413;28;20029;-64
2023/03/04 09:03:13;;;;;;;74.82;41.50;;;2.80;97.50;;;;;;5029330;28;20024;-64
2023/03/04 09:05:53;;;;;;;83.85;46.10;;;2.70;97.80;;;;;;5034041;28;20034;-63
2023/03/04 09:08:27;;;;;;;67.18;39.22;;;3.00;97.90;;;;;;5033629;28;20025;-63
2023/03/04 09:10:57;;;;;;;64.47;37.23;;;3.60;97.50;;;;;;5034739;28;20457;-65
2023/03/04 09:13:27;;;;;;;64.00;38.55;;;4.20;94.60;;;;;;5036358;28;20433;-63
2023/03/04 09:15:53;;;;;;;63.38;37.33;;;4.10;93.70;;;;;;5033459;28;20512;-65
2023/03/04 09:18:21;;;;;;;72.22;38.83;;;3.90;94.70;;;;;;5032723;28;20065;-65
2023/03/04 09:20:46;;;;;;;64.95;38.13;;;3.70;94.50;;;;;;5044647;28;20025;-65
2023/03/04 09:23:12;;;;;;;66.85;36.45;;;3.10;95.30;;;;;;5022549;28;20017;-64
2023/03/04 09:25:42;;;;;;;61.60;35.13;;;3.00;96.30;;;;;;5030986;28;20025;-64
2023/03/04 09:28:10;;;;;;;64.07;36.28;;;3.00;96.70;;;;;;5055893;28;20027;-65
2023/03/04 09:30:39;;;;;;;60.72;35.45;;;2.80;96.30;;;;;;5037575;28;20032;-65
2023/03/04 09:33:04;;;;;;;58.92;34.42;;;2.90;97.60;;;;;;5027344;28;20025;-63
2023/03/04 09:35:30;;;;;;;59.90;34.60;;;3.10;96.60;;;;;;5031381;28;20076;-65
2023/03/04 09:37:57;;;;;;;62.35;35.13;;;3.30;96.40;;;;;;5030581;28;20386;-64
2023/03/04 09:40:27;;;;;;;64.75;36.25;;;3.10;96.30;;;;;;5025086;28;20419;-64
2023/03/04 09:43:02;;;;;;;61.13;33.85;;;3.00;96.40;;;;;;5038030;28;20029;-65
2023/03/04 09:45:36;;;;;;;64.28;35.25;;;2.60;97.10;;;;;;5028699;28;20021;-64
2023/03/04 09:48:02;;;;;;;55.85;32.03;;;2.40;97.40;;;;;;5035574;28;20330;-64
2023/03/04 09:50:32;;;;;;;52.60;31.00;;;2.40;98.00;;;;;;5038335;28;20024;-64
2023/03/04 09:53:17;;;;;;;63.10;34.92;;;2.50;98.00;;;;;;5040772;28;20030;-64
2023/03/04 09:55:48;;;;;;;59.88;33.30;;;2.40;97.50;;;;;;5034952;28;20048;-65
2023/03/04 09:58:40;;;;;;;63.30;35.85;;;2.20;97.90;;;;;;5034574;28;20045;-64
2023/03/04 10:01:25;;;;;;;62.28;33.47;;;2.40;98.00;;;;;;5037806;28;20021;-64
2023/03/04 10:03:58;;;;;;;61.50;34.92;;;2.30;97.80;;;;;;5028699;28;20022;-64
2023/03/04 10:06:24;;;;;;;59.25;32.67;;;2.30;98.00;;;;;;5027804;28;20034;-65
2023/03/04 10:08:58;;;;;;;60.15;33.28;;;2.30;97.50;;;;;;5031064;28;20033;-64
2023/03/04 10:11:26;;;;;;;;;;;2.30;97.70;;;;;;5031875;28;20429;-64
2023/03/04 10:14:28;;;;;;;63.58;34.25;;;2.10;97.40;;;;;;5022550;28;19948;-65
2023/03/04 10:17:18;;;;;;;64.03;33.17;;;1.60;98.00;;;;;;5026860;28;20030;-65
2023/03/04 10:19:57;;;;;;;61.08;34.88;;;1.30;98.00;;;;;;5025270;28;20022;-65
2023/03/04 10:22:42;;;;;;;67.90;36.03;;;1.40;98.00;;;;;;5016526;28;20087;-65
2023/03/04 10:25:18;;;;;;;60.65;33.80;;;1.20;98.00;;;;;;5029605;28;20414;-65
2023/03/04 10:28:01;;;;;;;58.33;32.20;;;1.00;98.00;;;;;;5016986;28;20081;-65
2023/03/04 10:30:56;;;;;;;53.83;30.57;;;1.10;98.00;;;;;;5028088;28;20128;-65
2023/03/04 10:33:26;;;;;;;51.25;29.02;;;1.30;98.00;;;;;;5024884;28;20396;-65
2023/03/04 10:36:02;;;;;;;54.03;28.77;;;1.50;98.00;;;;;;5031415;28;20091;-63
2023/03/04 10:38:31;;;;;;;49.00;28.17;;;1.80;98.00;;;;;;5031821;28;20113;-66
2023/03/04 10:40:58;;;;;;;53.80;29.33;;;2.10;98.00;;;;;;5034067;28;20441;-65
2023/03/04 10:43:24;;;;;;;49.95;29.00;;;2.30;98.00;;;;;;5027384;28;20026;-65
2023/03/04 10:45:57;;;;;;;57.47;32.25;;;2.40;97.30;;;;;;5026430;28;20033;-65
2023/03/04 10:48:27;;;;;;;54.33;31.35;;;2.60;97.30;;;;;;5031417;28;20033;-65
2023/03/04 10:50:53;;;;;;;59.72;32.17;;;2.50;97.10;;;;;;5035353;28;20471;-65
2023/03/04 10:53:32;;;;;;;60.88;33.67;;;2.20;97.10;;;;;;5028957;28;20132;-65
2023/03/04 10:55:58;;;;;;;63.50;35.20;;;1.70;97.80;;;;;;5029416;28;20029;-65
2023/03/04 10:58:23;;;;;;;58.78;33.65;;;1.70;98.00;;;;;;5026389;28;20052;-65
2023/03/04 11:01:14;;;;;;;56.85;33.72;;;1.50;98.00;;;;;;5030587;28;20026;-65
2023/03/04 11:03:47;;;;;;;60.47;32.45;;;1.40;98.00;;;;;;5032969;28;20025;-65
2023/03/04 11:06:20;;;;;;;74.10;37.33;;;1.60;98.00;;;;;;5030698;28;20037;-65
2023/03/04 11:08:53;;;;;;;70.18;36.80;;;1.50;98.00;;;;;;5022846;28;20596;-66
2023/03/04 11:11:22;;;;;;;71.18;37.10;;;1.50;98.00;;;;;;5034332;28;20025;-66
2023/03/04 11:13:58;;;;;;;56.70;30.20;;;1.40;98.00;;;;;;5035250;28;20372;-65
2023/03/04 11:16:28;;;;;;;64.32;34.55;;;1.40;98.00;;;;;;5038989;28;20029;-65
2023/03/04 11:19:10;;;;;;;62.25;33.20;;;1.50;98.00;;;;;;5033679;28;20025;-65
2023/03/04 11:21:39;;;;;;;70.65;36.97;;;1.50;98.00;;;;;;5035395;28;20037;-65
2023/03/04 11:24:20;;;;;;;60.95;32.00;;;1.40;98.00;;;;;;5037494;28;20495;-65
2023/03/04 11:26:50;;;;;;;61.78;32.58;;;1.60;98.00;;;;;;5038199;28;20030;-65
2023/03/04 11:29:30;;;;;;;64.07;32.92;;;1.70;98.00;;;;;;5032948;28;20052;-65
2023/03/04 11:32:19;;;;;;;56.40;30.10;;;1.80;98.00;;;;;;5030643;28;20052;-65
2023/03/04 11:35:00;;;;;;;54.10;29.35;;;2.00;98.00;;;;;;5030641;28;20083;-67
2023/03/04 11:37:59;;;;;;;55.72;29.80;;;2.00;98.00;;;;;;5031492;28;20041;-68
2023/03/04 11:40:45;;;;;;;62.30;32.60;;;2.10;98.00;;;;;;5032501;28;20112;-66
2023/03/04 11:43:20;;;;;;;53.70;28.73;;;2.20;98.00;;;;;;5034414;28;20373;-67
2023/03/04 11:46:09;;;;;;;52.13;29.40;;;2.10;98.00;;;;;;5032398;28;20405;-67
2023/03/04 11:48:34;;;;;;;50.53;27.60;;;2.30;98.00;;;;;;5035036;28;20357;-67
2023/03/04 11:51:08;;;;;;;54.13;30.08;;;2.50;97.90;;;;;;5028000;28;20083;-67
2023/03/04 11:53:43;;;;;;;48.03;26.85;;;2.30;97.50;;;;;;5029624;28;20064;-67
2023/03/04 11:56:15;;;;;;;48.95;26.75;;;2.40;98.00;;;;;;5027646;28;20033;-67
2023/03/04 11:59:09;;;;;;;52.83;29.60;;;2.60;97.90;;;;;;5025937;28;20037;-67
2023/03/04 12:02:10;;;;;;;44.97;24.43;;;2.80;96.40;;;;;;5018159;28;20116;-67
2023/03/04 12:05:01;;;;;;;51.85;27.70;;;2.60;96.50;;;;;;5021944;28;20291;-67
2023/03/04 12:07:44;;;;;;;50.60;27.98;;;2.70;96.90;;;;;;5028035;28;20021;-67
2023/03/04 12:10:29;;;;;;;48.20;27.60;;;2.80;96.70;;;;;;5035943;28;20036;-66
2023/03/04 12:13:00;;;;;;;48.38;26.00;;;2.60;96.40;;;;;;5027299;28;20588;-67
2023/03/04 12:15:40;;;;;;;49.45;26.88;;;2.50;97.20;;;;;;5034283;28;20025;-66
2023/03/04 12:18:37;;;;;;;48.08;26.30;;;2.30;97.20;;;;;;5034509;28;20333;-67
2023/03/04 12:21:24;;;;;;;49.13;26.23;;;2.40;97.80;;;;;;5038002;28;20113;-67
2023/03/04 12:24:04;;;;;;;56.05;29.73;;;2.30;97.20;;;;;;5023504;28;20022;-67
2023/03/04 12:27:13;;;;;;;57.30;30.02;;;2.10;98.00;;;;;;5018071;28;20034;-67
2023/03/04 12:29:47;;;;;;;58.95;29.70;;;1.90;98.00;;;;;;5016569;28;20128;-66
2023/03/04 12:32:28;;;;;;;55.83;29.08;;;1.90;98.00;;;;;;5021881;28;20082;-67
2023/03/04 12:35:30;;;;;;;55.22;29.02;;;1.80;98.00;;;;;;5036967;28;20032;-67